createdAt,value
2019-03-17T00:00:25.017Z,3.07
2019-03-17T00:02:54.497Z,2.57
2019-03-17T00:05:23.953Z,2.83
2019-03-17T00:07:53.319Z,3.00
2019-03-17T00:10:22.817Z,2.23
2019-03-17T00:12:52.250Z,2.40
2019-03-17T00:15:21.678Z,2.30
2019-03-17T00:17:51.147Z,2.20
2019-03-17T00:20:20.551Z,2.07
2019-03-17T00:22:49.952Z,2.77
2019-03-17T00:25:19.450Z,1.73
2019-03-17T00:27:48.891Z,2.13
2019-03-17T00:30:18.358Z,2.40
2019-03-17T00:32:47.861Z,2.20
2019-03-17T00:35:17.287Z,2.43
2019-03-17T00:37:46.751Z,2.20
2019-03-17T00:40:16.157Z,2.13
2019-03-17T00:42:45.603Z,1.93
2019-03-17T00:45:15.262Z,2.00
2019-03-17T00:47:44.752Z,2.37
2019-03-17T00:50:14.275Z,1.90
2019-03-17T00:52:43.708Z,2.40
2019-03-17T00:55:14.358Z,2.23
2019-03-17T00:57:43.756Z,2.03
2019-03-17T01:00:15.054Z,2.80
2019-03-17T01:02:44.503Z,3.90
2019-03-17T01:05:13.944Z,2.30
2019-03-17T01:07:43.365Z,2.30
2019-03-17T01:10:13.256Z,2.10
2019-03-17T01:12:44.921Z,2.23
2019-03-17T01:15:14.599Z,2.33
2019-03-17T01:17:44.056Z,2.00
2019-03-17T01:20:13.763Z,2.20
2019-03-17T01:22:43.218Z,2.63
2019-03-17T01:25:12.697Z,2.30
2019-03-17T01:27:42.123Z,2.07
2019-03-17T01:30:13.475Z,2.60
2019-03-17T01:32:42.948Z,2.07
2019-03-17T01:35:12.560Z,2.63
2019-03-17T01:37:42.091Z,2.90
2019-03-17T01:40:11.747Z,2.77
2019-03-17T01:42:41.269Z,2.20
2019-03-17T01:45:11.361Z,3.40
2019-03-17T01:47:40.791Z,2.87
2019-03-17T01:50:10.462Z,3.00
2019-03-17T01:52:39.866Z,2.80
2019-03-17T01:55:09.435Z,3.37
2019-03-17T01:57:38.841Z,3.10
2019-03-17T02:00:11.213Z,2.80
2019-03-17T02:02:40.647Z,3.13
2019-03-17T02:05:21.351Z,3.10
2019-03-17T02:07:42.627Z,2.93
2019-03-17T02:10:12.421Z,3.03
2019-03-17T02:12:42.832Z,3.00
2019-03-17T02:15:12.380Z,2.67
2019-03-17T02:17:41.900Z,3.27
2019-03-17T02:20:11.561Z,3.10
2019-03-17T02:22:41.072Z,3.07
2019-03-17T02:25:10.605Z,3.43
2019-03-17T02:27:40.106Z,3.90
2019-03-17T02:30:11.978Z,2.90
2019-03-17T02:32:41.584Z,3.33
2019-03-17T02:35:11.158Z,2.80
2019-03-17T02:37:40.636Z,3.00
2019-03-17T02:40:10.306Z,2.53
2019-03-17T02:42:39.761Z,2.93
2019-03-17T02:45:10.362Z,3.00
2019-03-17T02:47:39.840Z,3.63
2019-03-17T02:50:09.880Z,3.13
2019-03-17T02:52:39.302Z,3.20
2019-03-17T02:55:09.203Z,3.50
2019-03-17T02:57:38.703Z,2.93
2019-03-17T03:00:10.264Z,3.50
2019-03-17T03:02:40.820Z,3.30
2019-03-17T03:05:11.266Z,3.03
2019-03-17T03:07:40.800Z,3.37
2019-03-17T03:10:10.545Z,3.20
2019-03-17T03:12:40.407Z,3.53
2019-03-17T03:15:10.482Z,3.17
2019-03-17T03:17:39.936Z,3.67
2019-03-17T03:20:09.904Z,3.23
2019-03-17T03:22:39.374Z,3.87
2019-03-17T03:25:10.124Z,3.27
2019-03-17T03:27:39.535Z,3.23
2019-03-17T03:30:11.610Z,3.17
2019-03-17T03:32:41.091Z,4.00
2019-03-17T03:35:10.523Z,2.80
2019-03-17T03:37:39.980Z,3.27
2019-03-17T03:40:13.055Z,3.23
2019-03-17T03:42:42.489Z,3.30
2019-03-17T03:45:12.941Z,3.40
2019-03-17T03:47:42.378Z,3.50
2019-03-17T03:50:12.594Z,3.70
2019-03-17T03:52:42.142Z,3.30
2019-03-17T03:55:11.609Z,3.53
2019-03-17T03:57:41.221Z,3.67
2019-03-17T04:00:15.892Z,3.53
2019-03-17T04:02:45.512Z,3.37
2019-03-17T04:05:16.019Z,4.00
2019-03-17T04:07:45.774Z,3.67
2019-03-17T04:10:15.285Z,4.43
2019-03-17T04:12:44.754Z,3.30
2019-03-17T04:15:14.371Z,3.90
2019-03-17T04:17:43.804Z,3.73
2019-03-17T04:20:13.243Z,4.00
2019-03-17T04:22:42.844Z,3.97
2019-03-17T04:25:17.009Z,4.77
2019-03-17T04:27:46.468Z,3.63
2019-03-17T04:30:17.194Z,4.03
2019-03-17T04:32:46.628Z,3.70
2019-03-17T04:35:16.014Z,4.47
2019-03-17T04:37:45.514Z,4.00
2019-03-17T04:40:14.974Z,4.03
2019-03-17T04:42:44.417Z,4.43
2019-03-17T04:45:13.964Z,4.10
2019-03-17T04:47:43.334Z,4.53
2019-03-17T04:50:12.860Z,4.20
2019-03-17T04:52:42.489Z,4.87
2019-03-17T04:55:11.931Z,5.20
2019-03-17T04:57:41.337Z,4.37
2019-03-17T05:00:12.439Z,4.33
2019-03-17T05:02:41.895Z,5.00
2019-03-17T05:05:11.486Z,5.03
2019-03-17T05:07:40.985Z,5.03
2019-03-17T05:10:10.969Z,5.43
2019-03-17T05:12:40.757Z,4.43
2019-03-17T05:15:11.926Z,5.40
2019-03-17T05:17:41.459Z,5.43
2019-03-17T05:20:11.569Z,5.87
2019-03-17T05:22:41.073Z,6.07
2019-03-17T05:25:10.521Z,5.50
2019-03-17T05:27:40.944Z,5.67
2019-03-17T05:30:11.887Z,5.00
2019-03-17T05:32:41.295Z,5.63
2019-03-17T05:35:10.917Z,5.07
2019-03-17T05:37:40.397Z,5.17
2019-03-17T05:40:10.676Z,5.03
2019-03-17T05:42:40.914Z,4.00
2019-03-17T05:45:10.781Z,4.23
2019-03-17T05:47:40.492Z,3.43
2019-03-17T05:50:10.726Z,3.30
2019-03-17T05:52:40.187Z,2.63
2019-03-17T05:55:10.100Z,2.93
2019-03-17T05:57:39.630Z,2.50
2019-03-17T06:00:12.224Z,2.40
2019-03-17T06:02:41.684Z,2.43
2019-03-17T06:05:11.230Z,1.83
2019-03-17T06:07:40.719Z,1.60
2019-03-17T06:10:10.302Z,1.43
2019-03-17T06:12:39.754Z,1.93
2019-03-17T06:15:11.348Z,1.70
2019-03-17T06:17:41.113Z,1.50
2019-03-17T06:20:12.022Z,1.50
2019-03-17T06:22:41.636Z,1.47
2019-03-17T06:25:11.073Z,1.60
2019-03-17T06:27:40.546Z,1.00
2019-03-17T06:30:12.157Z,1.20
2019-03-17T06:32:41.767Z,1.10
2019-03-17T06:35:11.391Z,1.10
2019-03-17T06:37:40.933Z,1.03
2019-03-17T06:40:12.512Z,1.00
2019-03-17T06:42:41.963Z,0.90
2019-03-17T06:45:11.926Z,1.00
2019-03-17T06:50:15.898Z,1.13
2019-03-17T06:52:45.377Z,1.20
2019-03-17T06:55:16.925Z,0.80
2019-03-17T06:57:46.529Z,0.80
2019-03-17T07:00:16.204Z,1.43
2019-03-17T07:02:45.998Z,1.00
2019-03-17T07:05:15.438Z,1.27
2019-03-17T07:07:45.082Z,1.00
2019-03-17T07:10:14.571Z,1.10
2019-03-17T07:12:44.021Z,0.93
2019-03-17T07:15:13.652Z,0.90
2019-03-17T07:17:44.089Z,1.40
2019-03-17T07:20:14.644Z,1.50
2019-03-17T07:22:44.164Z,0.93
2019-03-17T07:25:13.634Z,0.80
2019-03-17T07:27:43.105Z,1.10
2019-03-17T07:30:14.178Z,1.23
2019-03-17T07:32:43.652Z,1.20
2019-03-17T07:35:13.316Z,0.77
2019-03-17T07:37:55.596Z,1.27
2019-03-17T07:40:14.119Z,1.07
2019-03-17T07:42:43.644Z,1.30
2019-03-17T07:45:13.312Z,1.23
2019-03-17T07:47:43.144Z,1.30
2019-03-17T07:50:13.770Z,1.80
2019-03-17T07:52:44.215Z,2.53
2019-03-17T07:55:13.680Z,1.30
2019-03-17T07:57:43.210Z,1.30
2019-03-17T08:00:13.445Z,1.77
2019-03-17T08:02:43.040Z,1.47
2019-03-17T08:05:13.043Z,1.43
2019-03-17T08:07:42.717Z,1.50
2019-03-17T08:10:16.309Z,1.43
2019-03-17T08:12:45.865Z,1.77
2019-03-17T08:15:15.489Z,1.30
2019-03-17T08:17:45.018Z,1.50
2019-03-17T08:20:14.786Z,2.10
2019-03-17T08:22:44.309Z,1.43
2019-03-17T08:25:13.813Z,1.50
2019-03-17T08:27:43.296Z,1.30
2019-03-17T08:30:17.212Z,1.20
2019-03-17T08:32:46.652Z,1.50
2019-03-17T08:35:16.500Z,1.27
2019-03-17T08:37:45.985Z,1.37
2019-03-17T08:40:18.800Z,2.77
2019-03-17T08:42:48.370Z,1.80
2019-03-17T08:45:17.876Z,1.87
2019-03-17T08:47:57.307Z,1.43
2019-03-17T08:50:18.380Z,1.40
2019-03-17T08:52:47.801Z,1.80
2019-03-17T08:55:17.243Z,1.60
2019-03-17T08:57:46.776Z,2.37
2019-03-17T09:00:20.665Z,1.57
2019-03-17T09:02:50.186Z,6.60
2019-03-17T09:05:19.928Z,1.73
2019-03-17T09:07:49.375Z,2.17
2019-03-17T09:10:18.845Z,1.80
2019-03-17T09:12:48.332Z,2.40
2019-03-17T09:15:17.823Z,1.80
2019-03-17T09:17:47.759Z,1.40
2019-03-17T09:20:17.411Z,1.90
2019-03-17T09:22:46.956Z,1.40
2019-03-17T09:25:16.439Z,1.37
2019-03-17T09:27:45.922Z,1.43
2019-03-17T09:30:16.902Z,1.50
2019-03-17T09:32:47.454Z,2.67
2019-03-17T09:35:17.437Z,1.50
2019-03-17T09:37:46.859Z,1.63
2019-03-17T09:40:20.167Z,2.20
2019-03-17T09:42:49.612Z,1.43
2019-03-17T09:45:19.209Z,1.57
2019-03-17T09:47:48.889Z,1.20
2019-03-17T09:50:19.750Z,1.20
2019-03-17T09:52:49.225Z,1.50
2019-03-17T09:58:00.466Z,1.70
2019-03-17T10:00:30.087Z,1.70
2019-03-17T10:02:59.533Z,1.43
2019-03-17T10:05:29.010Z,1.23
2019-03-17T10:07:58.471Z,1.20
2019-03-17T10:10:27.926Z,1.77
2019-03-17T10:12:57.527Z,1.30
2019-03-17T10:15:26.992Z,1.43
2019-03-17T10:17:56.449Z,1.27
2019-03-17T10:20:25.937Z,2.23
2019-03-17T10:22:55.880Z,1.30
2019-03-17T10:25:25.687Z,1.47
2019-03-17T10:27:55.108Z,1.50
2019-03-17T10:30:24.602Z,1.40
2019-03-17T10:32:54.024Z,1.80
2019-03-17T10:35:23.573Z,1.17
2019-03-17T10:37:53.032Z,1.60
2019-03-17T10:40:22.726Z,1.50
2019-03-17T10:42:52.296Z,1.47
2019-03-17T10:45:21.683Z,1.40
2019-03-17T10:47:54.251Z,1.27
2019-03-17T10:50:22.856Z,2.10
2019-03-17T10:52:52.300Z,1.10
2019-03-17T10:55:22.109Z,1.73
2019-03-17T10:57:51.620Z,1.80
2019-03-17T11:00:22.024Z,1.27
2019-03-17T11:02:51.656Z,1.30
2019-03-17T11:05:21.238Z,1.13
2019-03-17T11:07:50.824Z,1.20
2019-03-17T11:10:20.271Z,1.20
2019-03-17T11:12:49.837Z,1.10
2019-03-17T11:15:21.325Z,1.37
2019-03-17T11:17:50.871Z,1.70
2019-03-17T11:20:20.531Z,1.70
2019-03-17T11:22:50.087Z,1.60
2019-03-17T11:25:20.613Z,1.53
2019-03-17T11:27:50.239Z,1.73
2019-03-17T11:30:21.854Z,1.43
2019-03-17T11:32:51.437Z,1.50
2019-03-17T11:35:21.060Z,1.50
2019-03-17T11:37:50.639Z,1.30
2019-03-17T11:40:21.141Z,1.63
2019-03-17T11:42:50.715Z,1.90
2019-03-17T11:45:20.261Z,1.20
2019-03-17T11:47:50.434Z,1.90
2019-03-17T11:50:21.432Z,1.77
2019-03-17T11:52:51.422Z,1.87
2019-03-17T11:55:21.401Z,2.37
2019-03-17T11:57:51.048Z,0.77
2019-03-17T12:00:22.016Z,0.43
2019-03-17T12:02:51.636Z,0.50
2019-03-17T12:05:21.257Z,0.50
2019-03-17T12:07:50.856Z,0.40
2019-03-17T12:10:23.938Z,0.50
2019-03-17T12:12:53.732Z,0.80
2019-03-17T12:15:25.248Z,1.10
2019-03-17T12:17:54.846Z,0.70
2019-03-17T12:20:24.554Z,0.60
2019-03-17T12:22:57.330Z,0.80
2019-03-17T12:25:26.978Z,0.80
2019-03-17T12:27:56.564Z,1.00
2019-03-17T12:30:28.346Z,0.90
2019-03-17T12:32:57.910Z,0.87
2019-03-17T12:35:27.585Z,1.00
2019-03-17T12:37:57.221Z,1.00
2019-03-17T12:40:26.761Z,1.07
2019-03-17T12:42:56.386Z,3.03
2019-03-17T12:45:25.992Z,2.57
2019-03-17T12:47:56.872Z,1.90
2019-03-17T12:50:27.379Z,1.57
2019-03-17T12:52:57.888Z,1.40
2019-03-17T12:55:27.439Z,1.43
2019-03-17T13:00:35.971Z,1.40
2019-03-17T13:03:05.507Z,1.50
2019-03-17T13:05:35.121Z,1.23
2019-03-17T13:08:06.260Z,1.60
2019-03-17T13:10:35.805Z,1.10
2019-03-17T13:13:05.376Z,1.73
2019-03-17T13:15:34.881Z,1.10
2019-03-17T13:18:04.470Z,1.03
2019-03-17T13:20:33.835Z,1.13
2019-03-17T13:23:03.284Z,1.20
2019-03-17T13:25:32.741Z,1.90
2019-03-17T13:28:02.298Z,1.50
2019-03-17T13:30:31.800Z,1.23
2019-03-17T13:33:01.541Z,1.40
2019-03-17T13:35:31.032Z,1.20
2019-03-17T13:38:00.749Z,1.93
2019-03-17T13:40:30.343Z,2.13
2019-03-17T13:43:00.808Z,1.57
2019-03-17T13:45:30.258Z,1.53
2019-03-17T13:47:59.734Z,1.43
2019-03-17T13:50:29.300Z,1.90
2019-03-17T13:52:58.679Z,1.13
2019-03-17T13:55:28.080Z,1.47
2019-03-17T13:58:03.485Z,1.63
2019-03-17T14:00:32.881Z,1.27
2019-03-17T14:03:02.424Z,1.13
2019-03-17T14:05:31.918Z,1.30
2019-03-17T14:08:01.870Z,2.03
2019-03-17T14:10:40.510Z,1.33
2019-03-17T14:13:02.503Z,1.23
2019-03-17T14:15:31.935Z,1.23
2019-03-17T14:18:01.433Z,1.33
2019-03-17T14:20:30.885Z,1.37
2019-03-17T14:23:00.338Z,1.57
2019-03-17T14:25:32.537Z,1.50
2019-03-17T14:28:02.029Z,1.50
2019-03-17T14:30:31.540Z,1.10
2019-03-17T14:33:01.027Z,1.43
2019-03-17T14:35:30.595Z,1.67
2019-03-17T14:38:00.103Z,0.80
2019-03-17T14:40:29.539Z,1.00
2019-03-17T14:42:59.289Z,0.63
2019-03-17T14:45:28.739Z,0.90
2019-03-17T14:47:58.182Z,0.80
2019-03-17T14:50:27.869Z,0.90
2019-03-17T14:53:00.745Z,1.23
2019-03-17T14:55:29.538Z,1.27
2019-03-17T14:57:59.929Z,1.50
2019-03-17T15:00:29.471Z,2.03
2019-03-17T15:02:59.879Z,2.30
2019-03-17T15:05:29.316Z,1.60
2019-03-17T15:07:58.766Z,1.17
2019-03-17T15:10:28.370Z,1.30
2019-03-17T15:12:57.884Z,1.57
2019-03-17T15:15:27.493Z,1.70
2019-03-17T15:17:56.987Z,1.90
2019-03-17T15:20:29.326Z,1.63
2019-03-17T15:22:59.048Z,1.50
2019-03-17T15:25:28.735Z,2.03
2019-03-17T15:27:58.169Z,1.50
2019-03-17T15:30:30.182Z,1.97
2019-03-17T15:32:59.724Z,1.97
2019-03-17T15:35:29.367Z,1.63
2019-03-17T15:37:58.917Z,1.63
2019-03-17T15:40:28.510Z,1.63
2019-03-17T15:42:59.088Z,2.50
2019-03-17T15:45:28.529Z,2.23
2019-03-17T15:47:58.131Z,2.13
2019-03-17T15:50:28.768Z,2.60
2019-03-17T15:52:58.269Z,1.60
2019-03-17T15:55:28.625Z,1.70
2019-03-17T15:57:58.237Z,1.67
2019-03-17T16:00:27.880Z,1.80
2019-03-17T16:02:57.452Z,1.60
2019-03-17T16:05:27.034Z,1.63
2019-03-17T16:07:56.666Z,1.90
2019-03-17T16:10:30.877Z,2.10
2019-03-17T16:13:00.457Z,1.20
2019-03-17T16:15:30.163Z,1.73
2019-03-17T16:18:01.258Z,1.53
2019-03-17T16:20:31.137Z,0.80
2019-03-17T16:23:00.596Z,0.77
2019-03-17T16:25:35.652Z,1.00
2019-03-17T16:28:05.328Z,1.00
2019-03-17T16:30:35.014Z,0.90
2019-03-17T16:33:05.154Z,0.70
2019-03-17T16:35:34.731Z,0.80
2019-03-17T16:38:04.411Z,0.60
2019-03-17T16:40:35.469Z,0.70
2019-03-17T16:43:05.887Z,0.60
2019-03-17T16:45:35.492Z,0.73
2019-03-17T16:48:05.147Z,0.83
2019-03-17T16:50:34.694Z,0.70
2019-03-17T16:53:04.310Z,0.40
2019-03-17T16:55:33.748Z,1.17
2019-03-17T16:58:03.199Z,0.83
2019-03-17T17:00:32.626Z,0.60
2019-03-17T17:03:02.152Z,0.60
2019-03-17T17:05:34.812Z,0.60
2019-03-17T17:08:02.988Z,0.80
2019-03-17T17:10:32.480Z,0.77
2019-03-17T17:13:02.027Z,0.70
2019-03-17T17:15:35.609Z,0.80
2019-03-17T17:18:05.204Z,0.77
2019-03-17T17:20:36.323Z,1.00
2019-03-17T17:23:05.819Z,0.90
2019-03-17T17:25:35.418Z,0.73
2019-03-17T17:28:05.931Z,0.70
2019-03-17T17:30:35.371Z,0.60
2019-03-17T17:33:05.079Z,0.70
2019-03-17T17:35:34.583Z,0.67
2019-03-17T17:38:04.209Z,0.80
2019-03-17T17:40:33.956Z,1.00
2019-03-17T17:43:03.389Z,0.80
2019-03-17T17:45:32.775Z,1.27
2019-03-17T17:48:02.182Z,0.83
2019-03-17T17:50:32.334Z,0.80
2019-03-17T17:53:02.195Z,1.00
2019-03-17T17:55:31.587Z,1.00
2019-03-17T17:58:01.112Z,0.90
2019-03-17T18:00:37.743Z,0.90
2019-03-17T18:03:07.272Z,0.90
2019-03-17T18:05:36.753Z,1.07
2019-03-17T18:08:06.274Z,1.43
2019-03-17T18:10:35.772Z,1.50
2019-03-17T18:13:05.614Z,1.40
2019-03-17T18:15:35.213Z,1.20
2019-03-17T18:18:04.977Z,0.90
2019-03-17T18:20:34.418Z,0.90
2019-03-17T18:23:16.925Z,1.33
2019-03-17T18:25:35.563Z,0.97
2019-03-17T18:28:05.181Z,0.70
2019-03-17T18:30:34.748Z,0.60
2019-03-17T18:33:04.283Z,0.90
2019-03-17T18:35:33.973Z,0.83
2019-03-17T18:38:03.429Z,1.00
2019-03-17T18:40:33.972Z,0.80
2019-03-17T18:43:03.407Z,0.90
2019-03-17T18:45:33.374Z,1.30
2019-03-17T18:48:02.772Z,1.27
2019-03-17T18:50:32.269Z,1.30
2019-03-17T18:53:01.813Z,1.30
2019-03-17T18:55:31.342Z,1.57
2019-03-17T18:58:00.767Z,1.90
2019-03-17T19:00:30.298Z,1.87
2019-03-17T19:02:59.804Z,1.37
2019-03-17T19:05:29.219Z,1.30
2019-03-17T19:07:58.747Z,1.90
2019-03-17T19:10:29.822Z,2.13
2019-03-17T19:12:59.233Z,2.13
2019-03-17T19:15:28.667Z,1.77
2019-03-17T19:17:58.454Z,1.67
2019-03-17T19:20:27.931Z,2.03
2019-03-17T19:22:57.321Z,1.63
2019-03-17T19:25:26.942Z,1.60
2019-03-17T19:27:56.443Z,1.50
2019-03-17T19:30:25.878Z,1.40
2019-03-17T19:32:55.349Z,2.03
2019-03-17T19:35:24.835Z,2.53
2019-03-17T19:37:54.382Z,3.30
2019-03-17T19:40:24.866Z,3.70
2019-03-17T19:42:59.221Z,3.37
2019-03-17T19:45:25.432Z,2.77
2019-03-17T19:47:54.908Z,3.07
2019-03-17T19:50:27.058Z,3.13
2019-03-17T19:52:56.571Z,2.27
2019-03-17T19:55:26.180Z,2.97
2019-03-17T19:57:55.653Z,3.90
2019-03-17T20:00:25.621Z,4.17
2019-03-17T20:02:55.278Z,4.10
2019-03-17T20:05:24.834Z,2.40
2019-03-17T20:07:54.279Z,1.40
2019-03-17T20:10:32.738Z,1.17
2019-03-17T20:13:11.604Z,1.10
2019-03-17T20:15:35.155Z,1.10
2019-03-17T20:18:04.537Z,1.20
2019-03-17T20:20:34.032Z,1.87
2019-03-17T20:23:03.473Z,1.90
2019-03-17T20:25:32.883Z,2.20
2019-03-17T20:28:02.469Z,2.70
2019-03-17T20:30:31.889Z,3.23
2019-03-17T20:33:01.574Z,4.13
2019-03-17T20:35:31.027Z,3.37
2019-03-17T20:38:00.441Z,3.07
2019-03-17T20:40:29.883Z,2.57
2019-03-17T20:42:59.369Z,2.30
2019-03-17T20:45:28.798Z,2.40
2019-03-17T20:47:58.248Z,1.90
2019-03-17T20:50:27.856Z,1.80
2019-03-17T20:52:57.689Z,1.80
2019-03-17T20:55:27.341Z,2.07
2019-03-17T20:57:56.975Z,2.30
2019-03-17T21:00:26.411Z,2.20
2019-03-17T21:02:55.807Z,1.90
2019-03-17T21:05:25.192Z,2.67
2019-03-17T21:07:54.631Z,2.47
2019-03-17T21:10:24.138Z,3.40
2019-03-17T21:12:53.618Z,2.70
2019-03-17T21:15:23.016Z,2.67
2019-03-17T21:17:52.564Z,3.90
2019-03-17T21:20:23.593Z,2.00
2019-03-17T21:22:53.040Z,1.77
2019-03-17T21:25:30.834Z,1.80
2019-03-17T21:28:00.300Z,1.43
2019-03-17T21:30:31.456Z,1.80
2019-03-17T21:33:01.040Z,1.77
2019-03-17T21:35:30.398Z,1.53
2019-03-17T21:37:59.824Z,1.80
2019-03-17T21:40:29.295Z,1.90
2019-03-17T21:42:58.659Z,1.90
2019-03-17T21:45:28.132Z,2.17
2019-03-17T21:47:57.799Z,1.87
2019-03-17T21:50:27.379Z,1.80
2019-03-17T21:52:57.100Z,2.03
2019-03-17T21:55:26.660Z,2.60
2019-03-17T21:57:56.097Z,2.30
2019-03-17T22:00:25.571Z,2.20
2019-03-17T22:02:55.399Z,2.27
2019-03-17T22:05:24.873Z,2.00
2019-03-17T22:07:54.309Z,2.40
2019-03-17T22:10:23.671Z,2.60
2019-03-17T22:12:53.485Z,2.50
2019-03-17T22:15:23.237Z,2.87
2019-03-17T22:17:52.747Z,2.80
2019-03-17T22:20:22.219Z,3.10
2019-03-17T22:22:52.943Z,2.77
2019-03-17T22:25:22.767Z,2.90
2019-03-17T22:27:52.125Z,3.57
2019-03-17T22:30:22.211Z,3.40
2019-03-17T22:32:52.841Z,2.83
2019-03-17T22:35:22.354Z,3.10
2019-03-17T22:37:52.044Z,3.33
2019-03-17T22:40:21.601Z,3.50
2019-03-17T22:42:51.041Z,2.93
2019-03-17T22:45:20.823Z,2.77
2019-03-17T22:47:50.451Z,3.80
2019-03-17T22:50:23.154Z,3.37
2019-03-17T22:52:52.640Z,3.43
2019-03-17T22:55:22.012Z,4.67
2019-03-17T22:57:51.600Z,3.33
2019-03-17T23:00:26.553Z,4.10
2019-03-17T23:02:57.202Z,3.90
2019-03-17T23:05:26.624Z,3.10
2019-03-17T23:07:56.067Z,3.80
2019-03-17T23:10:25.423Z,3.60
2019-03-17T23:12:54.855Z,2.83
2019-03-17T23:15:24.761Z,2.30
2019-03-17T23:17:54.197Z,2.47
2019-03-17T23:20:23.725Z,2.77
2019-03-17T23:22:53.191Z,2.30
2019-03-17T23:25:22.623Z,2.20
2019-03-17T23:27:52.223Z,2.47
2019-03-17T23:30:22.633Z,2.13
2019-03-17T23:32:52.104Z,2.10
2019-03-17T23:35:21.572Z,2.27
2019-03-17T23:37:51.075Z,2.70
2019-03-17T23:40:20.655Z,1.83
2019-03-17T23:42:50.429Z,2.33
2019-03-17T23:45:19.822Z,1.90
2019-03-17T23:47:49.326Z,1.83
2019-03-17T23:50:18.732Z,1.90
2019-03-17T23:52:48.327Z,2.10
2019-03-17T23:55:19.087Z,1.90
2019-03-17T23:57:48.470Z,2.17
